Time;durP1;ratioP1;P1;durP2;ratioP2;P2;SDS_P1;SDS_P2;PMS_P1;PMS_P2;Temp;Humidity;BMP_temperature;BMP_pressure;BME280_temperature;BME280_humidity;BME280_pressure;Samples;Min_cycle;Max_cycle;Signal;HPM_P1;HPM_P2
2023/05/17 00:01:58;;;;;;;;;;;;;;;10.09;53.26;101433.63;4193154;28;20011;-66
2023/05/17 00:04:01;;;;;;;;;;;;;;;10.08;53.72;101431.91;4194814;28;20027;-67
2023/05/17 00:06:03;;;;;;;;;;;;;;;10.09;54.10;101430.06;4196371;28;20023;-67
2023/05/17 00:08:05;;;;;;;;;;;;;;;10.08;54.23;101423.00;4196323;28;20015;-66
2023/05/17 00:10:08;;;;;;;;;;;;;;;10.10;54.41;101432.59;4196142;28;20039;-67
2023/05/17 00:12:10;;;;;;;;;;;;;;;10.13;54.65;101428.75;4195533;28;20044;-67
2023/05/17 00:14:12;;;;;;;;;;;;;;;10.16;54.63;101424.91;4195181;28;20027;-66
2023/05/17 00:16:14;;;;;;;;;;;;;;;10.15;54.62;101432.13;4194728;28;20011;-66
2023/05/17 00:18:16;;;;;;;;;;;;;;;10.13;54.93;101427.91;4197061;28;20023;-66
2023/05/17 00:20:19;;;;;;;;;;;;;;;10.10;55.49;101423.66;4196535;28;20091;-66
2023/05/17 00:22:21;;;;;;;;;;;;;;;10.13;55.53;101433.31;4195784;28;20328;-66
2023/05/17 00:24:23;;;;;;;;;;;;;;;10.14;55.68;101429.59;4195610;28;20365;-67
2023/05/17 00:26:25;;;;;;;;;;;;;;;10.12;56.06;101443.25;4196086;28;20450;-67
2023/05/17 00:28:27;;;;;;;;;;;;;;;10.12;56.29;101437.84;4195579;28;20026;-66
2023/05/17 00:30:29;;;;;;;;;;;;;;;10.13;56.72;101438.72;4178134;28;20075;-67
2023/05/17 00:32:31;;;;;;;;;;;;;;;10.13;57.01;101439.56;4192676;28;20015;-67
2023/05/17 00:34:33;;;;;;;;;;;;;;;10.13;57.19;101436.84;4195047;28;20471;-67
2023/05/17 00:36:36;;;;;;;;;;;;;;;10.13;57.35;101428.75;4196497;28;19929;-67
2023/05/17 00:38:38;;;;;;;;;;;;;;;10.10;57.28;101427.22;4169680;28;20035;-67
2023/05/17 00:40:40;;;;;;;;;;;;;;;10.08;57.83;101428.38;4196389;28;20379;-66
2023/05/17 00:42:42;;;;;;;;;;;;;;;10.04;58.14;101421.59;4177591;28;20023;-66
2023/05/17 00:44:44;;;;;;;;;;;;;;;10.01;58.35;101430.84;4196958;28;20122;-67
2023/05/17 00:46:46;;;;;;;;;;;;;;;9.99;58.51;101432.88;4169860;28;20016;-67
2023/05/17 00:48:48;;;;;;;;;;;;;;;9.97;59.00;101437.56;4169592;28;20475;-66
2023/05/17 00:50:51;;;;;;;;;;;;;;;9.99;58.93;101440.13;4195520;28;20036;-66
2023/05/17 00:52:54;;;;;;;;;;;;;;;9.95;59.23;101434.16;4195649;28;20477;-66
2023/05/17 00:54:56;;;;;;;;;;;;;;;9.94;59.63;101432.50;4195022;28;20020;-66
2023/05/17 00:57:00;;;;;;;;;;;;;;;9.85;59.80;101420.75;4185833;28;19925;-66
2023/05/17 00:59:02;;;;;;;;;;;;;;;9.89;59.98;101438.34;4195930;28;20007;-66
2023/05/17 01:01:04;;;;;;;;;;;;;;;9.86;60.23;101427.03;4169736;28;20044;-66
2023/05/17 01:03:06;;;;;;;;;;;;;;;9.83;60.71;101430.03;4195698;28;20044;-67
2023/05/17 01:05:08;;;;;;;;;;;;;;;9.80;61.19;101439.28;4195666;28;20042;-67
2023/05/17 01:07:10;;;;;;;;;;;;;;;9.78;61.01;101444.00;4194702;28;20484;-66
2023/05/17 01:09:15;;;;;;;;;;;;;;;9.74;61.30;101431.81;4193421;28;20011;-66
2023/05/17 01:11:18;;;;;;;;;;;;;;;9.68;61.49;101437.81;4194125;28;20470;-66
2023/05/17 01:13:23;;;;;;;;;;;;;;;9.62;62.04;101435.72;4177677;28;20024;-66
2023/05/17 01:15:25;;;;;;;;;;;;;;;9.60;62.33;101443.13;4194543;28;20011;-66
2023/05/17 01:17:29;;;;;;;;;;;;;;;9.57;62.78;101433.50;4194982;28;19954;-66
2023/05/17 01:19:45;;;;;;;;;;;;;;;9.51;62.84;101434.97;4194209;28;20012;-65
2023/05/17 01:21:55;;;;;;;;;;;;;;;9.45;63.07;101440.09;4153622;28;20024;-66
2023/05/17 01:23:59;;;;;;;;;;;;;;;9.38;62.93;101435.31;4195656;28;20019;-66
2023/05/17 01:26:05;;;;;;;;;;;;;;;9.29;63.43;101452.41;4194961;28;20015;-65
2023/05/17 01:28:08;;;;;;;;;;;;;;;9.19;63.70;101440.84;4196850;28;20438;-66
2023/05/17 01:30:11;;;;;;;;;;;;;;;9.10;64.05;101444.44;4177028;28;20047;-66
2023/05/17 01:32:13;;;;;;;;;;;;;;;9.03;63.95;101446.91;4191886;28;19986;-66
2023/05/17 01:34:24;;;;;;;;;;;;;;;8.95;64.46;101449.47;4195584;28;20015;-66
2023/05/17 01:36:26;;;;;;;;;;;;;;;8.89;64.57;101456.31;4194999;28;20012;-66
2023/05/17 01:38:28;;;;;;;;;;;;;;;8.83;64.81;101455.06;4195180;28;19990;-66
2023/05/17 01:40:30;;;;;;;;;;;;;;;8.80;65.09;101457.19;4194812;28;20015;-66
2023/05/17 01:42:32;;;;;;;;;;;;;;;8.76;65.46;101463.88;4195401;28;20030;-66
2023/05/17 01:44:38;;;;;;;;;;;;;;;8.74;65.75;101458.63;4192766;28;20043;-66
2023/05/17 01:46:40;;;;;;;;;;;;;;;8.71;65.95;101458.09;4193299;28;20024;-66
2023/05/17 01:48:44;;;;;;;;;;;;;;;8.68;66.26;101458.38;4175621;28;20027;-66
2023/05/17 01:50:46;;;;;;;;;;;;;;;8.64;66.15;101464.06;4152001;28;20012;-66
2023/05/17 01:52:50;;;;;;;;;;;;;;;8.62;66.40;101463.34;4195066;28;20019;-66
2023/05/17 01:54:54;;;;;;;;;;;;;;;8.61;66.81;101463.50;4194331;28;20028;-66
2023/05/17 01:56:58;;;;;;;;;;;;;;;8.60;66.94;101459.09;4195598;28;20062;-66
2023/05/17 01:59:00;;;;;;;;;;;;;;;8.58;66.84;101471.88;4168837;28;19929;-66
2023/05/17 02:01:04;;;;;;;;;;;;;;;8.53;66.70;101461.53;4194669;28;20010;-66
2023/05/17 02:03:06;;;;;;;;;;;;;;;8.48;67.16;101461.16;4194065;28;20027;-66
2023/05/17 02:05:10;;;;;;;;;;;;;;;8.45;67.05;101464.97;4193282;28;20642;-66
2023/05/17 02:07:15;;;;;;;;;;;;;;;8.42;67.51;101467.06;4194373;28;20052;-66
2023/05/17 02:09:16;;;;;;;;;;;;;;;8.39;67.49;101465.50;4194855;28;20023;-66
2023/05/17 02:11:18;;;;;;;;;;;;;;;8.37;67.84;101466.63;4173685;28;20617;-66
2023/05/17 02:13:22;;;;;;;;;;;;;;;8.31;68.13;101465.38;4194071;28;20023;-66
2023/05/17 02:15:24;;;;;;;;;;;;;;;8.27;68.24;101459.44;4185180;28;20132;-66
2023/05/17 02:17:27;;;;;;;;;;;;;;;8.25;68.36;101457.88;4183713;28;20026;-66
2023/05/17 02:19:29;;;;;;;;;;;;;;;8.22;68.53;101458.19;4193773;28;20438;-65
2023/05/17 02:21:31;;;;;;;;;;;;;;;8.19;68.59;101464.69;4173873;28;20016;-66
2023/05/17 02:23:33;;;;;;;;;;;;;;;8.15;69.12;101463.28;4176844;28;20031;-66
2023/05/17 02:25:35;;;;;;;;;;;;;;;8.14;69.16;101461.59;4168411;28;20491;-65
2023/05/17 02:27:37;;;;;;;;;;;;;;;8.15;69.15;101457.03;4194565;28;20023;-66
2023/05/17 02:29:39;;;;;;;;;;;;;;;8.12;69.29;101445.59;4194424;28;20035;-66
2023/05/17 02:31:41;;;;;;;;;;;;;;;8.09;69.47;101451.25;4177226;28;20016;-65
2023/05/17 02:33:44;;;;;;;;;;;;;;;8.08;69.49;101454.91;4193930;28;20094;-66
2023/05/17 02:35:46;;;;;;;;;;;;;;;8.06;69.83;101451.53;4194050;28;20021;-65
2023/05/17 02:37:48;;;;;;;;;;;;;;;8.04;69.67;101450.84;4193678;28;20031;-65
2023/05/17 02:39:50;;;;;;;;;;;;;;;8.02;69.87;101458.19;4194511;28;19991;-65
2023/05/17 02:41:52;;;;;;;;;;;;;;;8.01;70.07;101456.50;4193254;28;20361;-66
2023/05/17 02:43:54;;;;;;;;;;;;;;;7.97;70.31;101455.06;4194881;28;20091;-66
2023/05/17 02:45:56;;;;;;;;;;;;;;;7.94;70.54;101453.50;4193933;28;20011;-66
2023/05/17 02:47:58;;;;;;;;;;;;;;;7.93;70.67;101454.53;4194500;28;20014;-66
2023/05/17 02:50:01;;;;;;;;;;;;;;;7.93;70.64;101456.34;4184389;28;20458;-66
2023/05/17 02:52:05;;;;;;;;;;;;;;;7.91;71.02;101451.09;4167812;28;20040;-66
2023/05/17 02:54:07;;;;;;;;;;;;;;;7.92;71.16;101457.34;4151751;28;20556;-66
2023/05/17 02:56:09;;;;;;;;;;;;;;;7.89;71.13;101458.47;4156873;28;20439;-66
2023/05/17 02:58:11;;;;;;;;;;;;;;;7.90;71.67;101465.56;4167777;28;20435;-67
2023/05/17 03:00:15;;;;;;;;;;;;;;;7.94;71.93;101456.19;4167870;28;20024;-65
2023/05/17 03:02:19;;;;;;;;;;;;;;;7.97;71.80;101462.31;4167679;28;20023;-65
2023/05/17 03:04:21;;;;;;;;;;;;;;;7.97;72.01;101465.84;4183381;28;20014;-66
2023/05/17 03:06:24;;;;;;;;;;;;;;;7.99;71.92;101471.91;4184342;28;20674;-66
2023/05/17 03:08:27;;;;;;;;;;;;;;;8.00;72.46;101467.41;4159517;28;20040;-66
2023/05/17 03:10:30;;;;;;;;;;;;;;;8.00;72.42;101465.56;4192548;28;20010;-66
2023/05/17 03:12:32;;;;;;;;;;;;;;;8.02;72.65;101468.94;4174781;28;20473;-65
2023/05/17 03:14:34;;;;;;;;;;;;;;;8.03;72.53;101472.50;4168778;28;20031;-66
2023/05/17 03:16:37;;;;;;;;;;;;;;;8.05;72.85;101481.28;4167780;28;20068;-67
2023/05/17 03:18:40;;;;;;;;;;;;;;;8.06;73.08;101475.75;4168711;28;20015;-66
2023/05/17 03:20:42;;;;;;;;;;;;;;;8.07;72.70;101474.78;4182906;28;19956;-66
2023/05/17 03:22:45;;;;;;;;;;;;;;;8.09;73.11;101475.47;4183474;28;20370;-65
2023/05/17 03:24:47;;;;;;;;;;;;;;;8.12;73.09;101479.72;4193718;28;20031;-66
2023/05/17 03:26:49;;;;;;;;;;;;;;;8.16;73.34;101489.19;4159027;28;20020;-66
2023/05/17 03:28:52;;;;;;;;;;;;;;;8.19;73.19;101480.84;4184584;28;20039;-65
2023/05/17 03:30:54;;;;;;;;;;;;;;;8.24;73.34;101488.47;4169273;28;20020;-66
2023/05/17 03:32:57;;;;;;;;;;;;;;;8.27;73.36;101486.34;4182096;28;20037;-66
2023/05/17 03:34:59;;;;;;;;;;;;;;;8.29;72.96;101492.44;4175421;28;20385;-65
2023/05/17 03:37:02;;;;;;;;;;;;;;;8.30;73.41;101487.91;4172935;28;20020;-66
2023/05/17 03:39:06;;;;;;;;;;;;;;;8.34;73.35;101489.31;4187494;28;20031;-66
2023/05/17 03:41:08;;;;;;;;;;;;;;;8.39;73.74;101499.66;4170023;28;19925;-65
2023/05/17 03:43:11;;;;;;;;;;;;;;;8.43;73.48;101501.06;4171118;28;20020;-66
2023/05/17 03:45:13;;;;;;;;;;;;;;;8.44;73.47;101503.63;4170798;28;20454;-66
2023/05/17 03:47:15;;;;;;;;;;;;;;;8.48;73.40;101504.22;4194395;28;20011;-66
2023/05/17 03:49:17;;;;;;;;;;;;;;;8.52;73.55;101502.91;4195701;28;20023;-65
2023/05/17 03:51:19;;;;;;;;;;;;;;;8.54;73.28;101513.53;4187560;28;20431;-66
2023/05/17 03:53:21;;;;;;;;;;;;;;;8.59;73.53;101517.50;4170457;28;19966;-66
2023/05/17 03:55:25;;;;;;;;;;;;;;;8.62;73.53;101513.66;4196331;28;20022;-66
2023/05/17 03:57:27;;;;;;;;;;;;;;;8.67;73.73;101516.78;4170060;28;20032;-65
2023/05/17 03:59:29;;;;;;;;;;;;;;;8.73;73.53;101505.44;4196027;28;20023;-66
2023/05/17 04:01:33;;;;;;;;;;;;;;;8.77;73.95;101522.97;4177271;28;20695;-66
2023/05/17 04:03:36;;;;;;;;;;;;;;;8.83;73.75;101527.78;4161237;28;20019;-66
2023/05/17 04:05:39;;;;;;;;;;;;;;;8.90;73.66;101519.94;4168595;28;20012;-65
2023/05/17 04:07:41;;;;;;;;;;;;;;;8.97;73.46;101529.16;4169964;28;20052;-65
2023/05/17 04:09:43;;;;;;;;;;;;;;;9.04;73.18;101524.03;4168578;28;20598;-67
2023/05/17 04:11:46;;;;;;;;;;;;;;;9.10;72.96;101527.97;4174601;28;20016;-66
2023/05/17 04:13:48;;;;;;;;;;;;;;;9.15;72.62;101534.63;4186819;28;20023;-65
2023/05/17 04:15:50;;;;;;;;;;;;;;;9.19;72.70;101525.25;4185497;28;20022;-65
2023/05/17 04:17:52;;;;;;;;;;;;;;;9.25;72.57;101528.31;4177946;28;20019;-66
2023/05/17 04:19:54;;;;;;;;;;;;;;;9.27;72.12;101535.28;4195733;28;20376;-66
2023/05/17 04:21:56;;;;;;;;;;;;;;;9.29;72.08;101521.66;4173647;28;20367;-65
2023/05/17 04:24:01;;;;;;;;;;;;;;;9.27;72.16;101527.19;4175748;28;20020;-65
2023/05/17 04:26:04;;;;;;;;;;;;;;;9.29;72.33;101527.88;4168342;28;20260;-66
2023/05/17 04:28:11;;;;;;;;;;;;;;;9.32;71.98;101535.66;4186571;28;20019;-66
2023/05/17 04:30:13;;;;;;;;;;;;;;;9.36;72.15;101541.63;4187104;28;20015;-65
2023/05/17 04:32:15;;;;;;;;;;;;;;;9.37;72.02;101533.41;4195948;28;20032;-66
2023/05/17 04:34:17;;;;;;;;;;;;;;;9.40;72.16;101529.53;4195142;28;20039;-66
2023/05/17 04:36:19;;;;;;;;;;;;;;;9.52;71.90;101538.28;4196064;28;20035;-66
2023/05/17 04:38:23;;;;;;;;;;;;;;;9.55;71.72;101544.22;4186330;28;20051;-65
2023/05/17 04:40:26;;;;;;;;;;;;;;;9.59;71.53;101547.44;4169318;28;20020;-66
2023/05/17 04:42:29;;;;;;;;;;;;;;;9.62;71.43;101544.44;4186507;28;19936;-65
2023/05/17 04:44:34;;;;;;;;;;;;;;;9.66;71.49;101550.41;4192819;28;20606;-66
2023/05/17 04:46:36;;;;;;;;;;;;;;;9.68;70.99;101561.88;4168048;28;20016;-66
2023/05/17 04:48:38;;;;;;;;;;;;;;;9.68;71.16;101564.59;4193959;28;20095;-65
2023/05/17 04:50:41;;;;;;;;;;;;;;;9.68;70.95;101569.97;4168752;28;20027;-65
2023/05/17 04:52:43;;;;;;;;;;;;;;;9.71;70.64;101577.78;4195304;28;20031;-66
2023/05/17 04:54:47;;;;;;;;;;;;;;;9.72;70.52;101584.88;4177816;28;20488;-66
2023/05/17 04:56:49;;;;;;;;;;;;;;;9.71;70.42;101594.81;4174716;28;20392;-66
2023/05/17 04:59:01;;;;;;;;;;;;;;;9.71;70.46;101597.50;4175750;28;20366;-65
2023/05/17 05:01:05;;;;;;;;;;;;;;;9.71;70.63;101593.97;4172242;28;20031;-65
2023/05/17 05:03:08;;;;;;;;;;;;;;;9.67;70.56;101587.16;4164899;28;19968;-65
2023/05/17 05:05:11;;;;;;;;;;;;;;;9.62;70.68;101593.00;4164570;28;20060;-64
2023/05/17 05:07:14;;;;;;;;;;;;;;;9.62;70.63;101603.78;4184074;28;20047;-65
2023/05/17 05:09:17;;;;;;;;;;;;;;;9.63;70.80;101597.41;4182252;28;20015;-66
2023/05/17 05:11:19;;;;;;;;;;;;;;;9.65;70.69;101613.44;4174183;28;20019;-66
2023/05/17 05:13:22;;;;;;;;;;;;;;;9.68;70.87;101615.84;4167567;28;20011;-66
2023/05/17 05:15:24;;;;;;;;;;;;;;;9.67;70.78;101616.81;4182537;28;20436;-65
2023/05/17 05:17:33;;;;;;;;;;;;;;;9.68;70.20;101619.38;4168397;28;20023;-65
2023/05/17 05:19:35;;;;;;;;;;;;;;;9.72;69.97;101611.84;4166316;28;20503;-65
2023/05/17 05:21:37;;;;;;;;;;;;;;;9.73;69.96;101600.03;4177706;28;20450;-65
2023/05/17 05:23:41;;;;;;;;;;;;;;;9.76;70.29;101613.22;4176513;28;19924;-66
2023/05/17 05:25:43;;;;;;;;;;;;;;;9.79;69.69;101614.78;4178335;28;20015;-65
2023/05/17 05:27:46;;;;;;;;;;;;;;;9.82;69.27;101617.19;4177740;28;20016;-65
2023/05/17 05:29:48;;;;;;;;;;;;;;;9.84;68.93;101613.34;4169819;28;20020;-65
2023/05/17 05:31:51;;;;;;;;;;;;;;;9.87;68.79;101618.44;4182315;28;20027;-65
2023/05/17 05:33:54;;;;;;;;;;;;;;;9.89;68.49;101615.56;4167395;28;20016;-66
2023/05/17 05:35:57;;;;;;;;;;;;;;;9.91;68.10;101610.88;4177983;28;20020;-66
2023/05/17 05:38:01;;;;;;;;;;;;;;;9.90;68.07;101622.66;4169514;28;20038;-65
2023/05/17 05:40:03;;;;;;;;;;;;;;;9.91;68.28;101630.63;4185874;28;20019;-65
2023/05/17 05:42:06;;;;;;;;;;;;;;;9.92;67.65;101634.16;4177106;28;20036;-66
2023/05/17 05:44:08;;;;;;;;;;;;;;;9.97;67.47;101626.47;4177173;28;20366;-65
2023/05/17 05:46:10;;;;;;;;;;;;;;;10.00;67.31;101638.81;4177649;28;20724;-66
2023/05/17 05:48:12;;;;;;;;;;;;;;;10.02;66.76;101629.56;4160794;28;20019;-66
2023/05/17 05:50:15;;;;;;;;;;;;;;;10.04;66.76;101638.34;4178093;28;20404;-66
2023/05/17 05:52:21;;;;;;;;;;;;;;;10.06;66.69;101633.66;4185112;28;20028;-66
2023/05/17 05:54:23;;;;;;;;;;;;;;;10.06;66.71;101632.81;4168067;28;20028;-65
2023/05/17 05:56:27;;;;;;;;;;;;;;;10.07;67.10;101639.91;4168698;28;20040;-65
2023/05/17 05:58:29;;;;;;;;;;;;;;;10.08;66.76;101638.91;4176491;28;20007;-65
2023/05/17 06:00:31;;;;;;;;;;;;;;;10.12;67.26;101639.44;4176518;28;20498;-65
2023/05/17 06:02:33;;;;;;;;;;;;;;;10.15;66.97;101644.53;4178854;28;20028;-66
2023/05/17 06:04:35;;;;;;;;;;;;;;;10.18;66.52;101646.94;4189692;28;20438;-65
2023/05/17 06:06:39;;;;;;;;;;;;;;;10.21;66.60;101652.03;4193794;28;20023;-65
2023/05/17 06:08:42;;;;;;;;;;;;;;;10.21;65.60;101655.56;4195079;28;20015;-66
2023/05/17 06:10:44;;;;;;;;;;;;;;;10.22;65.41;101654.59;4194730;28;20019;-66
2023/05/17 06:12:46;;;;;;;;;;;;;;;10.26;65.17;101655.13;4193803;28;20039;-65
2023/05/17 06:14:48;;;;;;;;;;;;;;;10.26;64.44;101665.91;4194818;28;20019;-66
2023/05/17 06:16:50;;;;;;;;;;;;;;;10.30;64.21;101661.94;4195110;28;20466;-66
2023/05/17 06:18:54;;;;;;;;;;;;;;;10.32;63.04;101659.91;4193564;28;20028;-65
2023/05/17 06:20:58;;;;;;;;;;;;;;;10.35;61.93;101664.19;4192860;28;20030;-65
2023/05/17 06:23:03;;;;;;;;;;;;;;;10.38;61.49;101667.44;4193913;28;20031;-66
2023/05/17 06:25:06;;;;;;;;;;;;;;;10.40;61.39;101662.72;4185463;28;19935;-65
2023/05/17 06:27:08;;;;;;;;;;;;;;;10.42;61.05;101663.44;4194692;28;20028;-66
2023/05/17 06:29:10;;;;;;;;;;;;;;;10.43;60.86;101659.72;4192392;28;20015;-65
2023/05/17 06:31:12;;;;;;;;;;;;;;;10.42;60.00;101660.75;4161258;28;20255;-66
2023/05/17 06:33:14;;;;;;;;;;;;;;;10.37;59.53;101671.13;4158598;28;19932;-65
2023/05/17 06:35:16;;;;;;;;;;;;;;;10.36;59.23;101676.69;4160295;28;19936;-65
2023/05/17 06:37:18;;;;;;;;;;;;;;;10.38;59.31;101670.13;4187038;28;20043;-67
2023/05/17 06:39:21;;;;;;;;;;;;;;;10.44;59.66;101674.09;4182153;28;20015;-65
2023/05/17 06:41:23;;;;;;;;;;;;;;;10.50;58.86;101668.06;4186365;28;20008;-66
2023/05/17 06:43:25;;;;;;;;;;;;;;;10.56;58.62;101661.19;4189104;28;20015;-66
2023/05/17 06:45:28;;;;;;;;;;;;;;;10.61;57.96;101648.06;4172681;28;19940;-65
2023/05/17 06:47:30;;;;;;;;;;;;;;;10.64;57.35;101656.72;4191483;28;20360;-63
2023/05/17 06:49:32;;;;;;;;;;;;;;;10.70;57.15;101663.34;4191558;28;20011;-65
2023/05/17 06:51:34;;;;;;;;;;;;;;;10.73;57.28;101664.91;4193168;28;20019;-64
2023/05/17 06:53:36;;;;;;;;;;;;;;;10.78;57.40;101671.53;4187093;28;20019;-64
2023/05/17 06:55:40;;;;;;;;;;;;;;;10.78;56.18;101654.47;4181601;28;20028;-64
2023/05/17 06:57:42;;;;;;;;;;;;;;;10.75;56.42;101669.16;4192972;28;20425;-64
2023/05/17 06:59:44;;;;;;;;;;;;;;;10.74;56.40;101677.41;4181295;28;20028;-66
2023/05/17 07:01:46;;;;;;;;;;;;;;;10.76;56.73;101667.28;4175677;28;20044;-64
2023/05/17 07:03:48;;;;;;;;;;;;;;;10.82;56.39;101674.78;4189145;28;20023;-66
2023/05/17 07:05:50;;;;;;;;;;;;;;;10.87;55.92;101680.56;4191230;28;19925;-64
2023/05/17 07:07:52;;;;;;;;;;;;;;;10.89;55.40;101667.72;4190288;28;20022;-65
2023/05/17 07:09:54;;;;;;;;;;;;;;;10.94;55.90;101672.66;4192353;28;20102;-65
2023/05/17 07:11:58;;;;;;;;;;;;;;;10.99;55.95;101678.47;4192340;28;20018;-64
2023/05/17 07:14:00;;;;;;;;;;;;;;;11.04;55.59;101676.13;4192985;28;20016;-65
2023/05/17 07:16:02;;;;;;;;;;;;;;;11.10;55.32;101677.38;4193125;28;20312;-65
2023/05/17 07:18:04;;;;;;;;;;;;;;;11.14;55.08;101687.72;4194041;28;20023;-66
2023/05/17 07:20:06;;;;;;;;;;;;;;;11.21;55.68;101677.09;4184371;28;20015;-66
2023/05/17 07:22:10;;;;;;;;;;;;;;;11.28;55.68;101688.13;4191546;28;20019;-65
2023/05/17 07:24:12;;;;;;;;;;;;;;;11.32;56.12;101682.25;4192242;28;20011;-65
2023/05/17 07:26:14;;;;;;;;;;;;;;;11.34;56.36;101690.19;4192373;28;19924;-65
2023/05/17 07:28:17;;;;;;;;;;;;;;;11.36;56.54;101691.75;4193160;28;20019;-66
2023/05/17 07:30:19;;;;;;;;;;;;;;;11.35;56.36;101690.03;4192961;28;20011;-65
2023/05/17 07:32:21;;;;;;;;;;;;;;;11.34;56.10;101688.34;4193692;28;20036;-65
2023/05/17 07:34:23;;;;;;;;;;;;;;;11.30;56.18;101697.78;4193304;28;20034;-66
2023/05/17 07:36:29;;;;;;;;;;;;;;;11.30;56.17;101702.34;4194137;28;20458;-65
2023/05/17 07:38:31;;;;;;;;;;;;;;;11.33;56.18;101707.41;4194002;28;20032;-66
2023/05/17 07:40:33;;;;;;;;;;;;;;;11.32;55.68;101712.00;4187664;28;20031;-65
2023/05/17 07:42:35;;;;;;;;;;;;;;;11.34;55.30;101712.69;4191114;28;20381;-66
2023/05/17 07:44:38;;;;;;;;;;;;;;;11.34;55.23;101719.94;4173196;28;20416;-66
2023/05/17 07:46:40;;;;;;;;;;;;;;;11.34;54.54;101718.09;4192894;28;20385;-66
2023/05/17 07:48:42;;;;;;;;;;;;;;;11.34;53.54;101718.09;4193852;28;20318;-65
2023/05/17 07:50:45;;;;;;;;;;;;;;;11.35;52.89;101729.78;4192804;28;20019;-66
2023/05/17 07:52:47;;;;;;;;;;;;;;;11.36;52.83;101729.63;4192705;28;20023;-66
2023/05/17 07:54:49;;;;;;;;;;;;;;;11.38;52.44;101734.88;4192668;28;20015;-66
2023/05/17 07:56:54;;;;;;;;;;;;;;;11.37;52.56;101730.47;4174681;28;20038;-66
2023/05/17 07:58:56;;;;;;;;;;;;;;;11.39;52.25;101739.25;4192296;28;20012;-65
2023/05/17 08:01:00;;;;;;;;;;;;;;;11.42;52.53;101746.22;4190052;28;20035;-66
2023/05/17 08:03:02;;;;;;;;;;;;;;;11.46;52.64;101747.59;4190443;28;19931;-66
2023/05/17 08:05:06;;;;;;;;;;;;;;;11.51;52.67;101748.81;4190734;28;20443;-65
2023/05/17 08:07:08;;;;;;;;;;;;;;;11.54;52.06;101745.78;4193885;28;20434;-66
2023/05/17 08:09:10;;;;;;;;;;;;;;;11.56;51.37;101753.75;4193705;28;20019;-66
2023/05/17 08:11:13;;;;;;;;;;;;;;;11.60;51.22;101748.84;4193394;28;20015;-65
2023/05/17 08:13:15;;;;;;;;;;;;;;;11.62;50.76;101742.28;4189527;28;20361;-66
2023/05/17 08:15:17;;;;;;;;;;;;;;;11.66;51.43;101742.81;4173094;28;20023;-66
2023/05/17 08:17:21;;;;;;;;;;;;;;;11.67;51.83;101745.34;4189184;28;20035;-65
2023/05/17 08:19:23;;;;;;;;;;;;;;;11.70;51.79;101746.91;4188973;28;20454;-66
2023/05/17 08:21:25;;;;;;;;;;;;;;;11.73;51.70;101752.00;4190854;28;20014;-66
2023/05/17 08:23:27;;;;;;;;;;;;;;;11.76;50.84;101757.09;4190886;28;20030;-65
2023/05/17 08:25:29;;;;;;;;;;;;;;;11.78;50.96;101759.63;4196600;28;20015;-65
2023/05/17 08:27:31;;;;;;;;;;;;;;;11.80;50.31;101754.91;4195546;28;19924;-65
2023/05/17 08:29:33;;;;;;;;;;;;;;;11.75;50.78;101747.25;4196119;28;20346;-66
2023/05/17 08:31:35;;;;;;;;;;;;;;;11.78;50.99;101754.22;4191694;28;20018;-66
2023/05/17 08:33:39;;;;;;;;;;;;;;;11.81;50.44;101749.34;4196272;28;20031;-65
2023/05/17 08:35:41;;;;;;;;;;;;;;;11.85;50.18;101753.44;4195567;28;20023;-65
2023/05/17 08:37:42;;;;;;;;;;;;;;;11.88;48.98;101771.19;4197174;28;20316;-66
2023/05/17 08:39:44;;;;;;;;;;;;;;;11.86;47.81;101763.22;4196589;28;20019;-65
2023/05/17 08:41:47;;;;;;;;;;;;;;;11.85;47.90;101769.66;4193887;28;20047;-66
2023/05/17 08:43:49;;;;;;;;;;;;;;;11.89;48.03;101773.72;4196283;28;20019;-66
2023/05/17 08:45:51;;;;;;;;;;;;;;;11.93;47.92;101770.75;4192412;28;20019;-65
2023/05/17 08:47:53;;;;;;;;;;;;;;;11.93;46.09;101770.75;4192209;28;19928;-66
2023/05/17 08:49:59;;;;;;;;;;;;;;;11.96;47.05;101770.41;4192483;28;20059;-65
2023/05/17 08:52:02;;;;;;;;;;;;;;;11.97;47.20;101767.56;4190386;28;20011;-67
2023/05/17 08:54:07;;;;;;;;;;;;;;;12.02;47.93;101775.19;4193131;28;20654;-66
2023/05/17 08:56:09;;;;;;;;;;;;;;;12.04;47.83;101763.19;4190855;28;20011;-65
2023/05/17 08:58:11;;;;;;;;;;;;;;;12.06;46.02;101777.41;4191634;28;20028;-65
2023/05/17 09:00:13;;;;;;;;;;;;;;;12.04;45.82;101765.91;4193759;28;20015;-66
2023/05/17 09:02:15;;;;;;;;;;;;;;;12.04;45.89;101774.03;4195692;28;20027;-66
2023/05/17 09:04:17;;;;;;;;;;;;;;;11.99;45.86;101767.38;4194784;28;20015;-66
2023/05/17 09:06:21;;;;;;;;;;;;;;;11.95;46.21;101750.63;4194542;28;20027;-66
2023/05/17 09:08:23;;;;;;;;;;;;;;;11.95;47.46;101763.31;4195671;28;19928;-66
2023/05/17 09:10:25;;;;;;;;;;;;;;;11.99;48.10;101762.84;4194169;28;20016;-66
2023/05/17 09:12:28;;;;;;;;;;;;;;;12.04;47.09;101771.31;4194900;28;20024;-66
2023/05/17 09:14:32;;;;;;;;;;;;;;;12.07;46.93;101760.16;4192570;28;20020;-66
2023/05/17 09:16:35;;;;;;;;;;;;;;;12.12;47.23;101766.97;4193985;28;20513;-65
2023/05/17 09:18:37;;;;;;;;;;;;;;;12.15;47.33;101770.19;4190572;28;20015;-66
2023/05/17 09:20:39;;;;;;;;;;;;;;;12.19;47.70;101768.00;4195169;28;20367;-66
2023/05/17 09:22:43;;;;;;;;;;;;;;;12.21;48.00;101760.56;4195118;28;20007;-67
2023/05/17 09:24:45;;;;;;;;;;;;;;;12.24;47.72;101771.94;4196445;28;20019;-67
2023/05/17 09:26:47;;;;;;;;;;;;;;;12.24;45.89;101771.06;4195322;28;20364;-67
2023/05/17 09:28:49;;;;;;;;;;;;;;;12.20;45.53;101769.72;4195171;28;20335;-65
2023/05/17 09:30:51;;;;;;;;;;;;;;;12.20;47.47;101781.38;4185388;28;20023;-66
2023/05/17 09:32:54;;;;;;;;;;;;;;;12.24;46.61;101779.19;4195434;28;20027;-66
2023/05/17 09:34:56;;;;;;;;;;;;;;;12.25;44.96;101775.47;4195715;28;20024;-66
2023/05/17 09:36:58;;;;;;;;;;;;;;;12.22;43.85;101775.78;4194987;28;20031;-66
2023/05/17 09:39:04;;;;;;;;;;;;;;;12.21;43.50;101772.25;4193206;28;20019;-66
2023/05/17 09:41:06;;;;;;;;;;;;;;;12.23;45.49;101777.50;4152587;28;19972;-66
2023/05/17 09:43:08;;;;;;;;;;;;;;;12.26;46.51;101775.31;4193503;28;20454;-66
2023/05/17 09:45:10;;;;;;;;;;;;;;;12.32;46.36;101773.81;4193132;28;20039;-67
2023/05/17 09:47:13;;;;;;;;;;;;;;;12.37;47.98;101773.34;4194175;28;20020;-66
2023/05/17 09:49:15;;;;;;;;;;;;;;;12.41;48.27;101783.69;4193740;28;19931;-65
2023/05/17 09:51:17;;;;;;;;;;;;;;;12.46;47.96;101768.78;4195608;28;20026;-66
2023/05/17 09:53:24;;;;;;;;;;;;;;;12.50;48.08;101764.72;4194168;28;20451;-66
2023/05/17 09:55:28;;;;;;;;;;;;;;;12.55;47.26;101765.91;4190905;28;20019;-66
2023/05/17 09:57:36;;;;;;;;;;;;;;;12.59;47.38;101772.72;4193173;28;20011;-65
2023/05/17 09:59:38;;;;;;;;;;;;;;;12.60;47.81;101779.84;4194149;28;20369;-66
2023/05/17 10:01:41;;;;;;;;;;;;;;;12.60;47.51;101774.44;4193439;28;20019;-67
2023/05/17 10:03:43;;;;;;;;;;;;;;;12.62;47.46;101774.25;4194001;28;20022;-66
2023/05/17 10:05:46;;;;;;;;;;;;;;;12.65;46.21;101779.34;4195466;28;20023;-66
2023/05/17 10:07:48;;;;;;;;;;;;;;;12.68;45.92;101784.44;4194717;28;20430;-65
2023/05/17 10:09:50;;;;;;;;;;;;;;;12.70;47.74;101770.72;4193260;28;19933;-66
2023/05/17 10:11:55;;;;;;;;;;;;;;;12.73;47.84;101779.38;4194615;28;20015;-66
2023/05/17 10:14:00;;;;;;;;;;;;;;;12.74;47.67;101777.50;4194093;28;20027;-67
2023/05/17 10:16:05;;;;;;;;;;;;;;;12.77;47.83;101791.59;4195053;28;20572;-66
2023/05/17 10:18:07;;;;;;;;;;;;;;;12.81;46.42;101786.66;4194752;28;20015;-65
2023/05/17 10:20:10;;;;;;;;;;;;;;;12.80;46.01;101776.81;4194973;28;20278;-66
2023/05/17 10:22:13;;;;;;;;;;;;;;;12.85;45.59;101769.03;4168918;28;20040;-66
2023/05/17 10:24:15;;;;;;;;;;;;;;;12.86;46.83;101773.44;4194677;28;20493;-66
2023/05/17 10:26:17;;;;;;;;;;;;;;;12.88;47.04;101776.00;4194637;28;20028;-66
2023/05/17 10:28:21;;;;;;;;;;;;;;;12.90;46.43;101782.97;4194560;28;20471;-66
2023/05/17 10:30:23;;;;;;;;;;;;;;;12.94;47.21;101778.03;4191984;28;19931;-66
2023/05/17 10:32:26;;;;;;;;;;;;;;;12.97;46.65;101791.25;4193516;28;20016;-65
2023/05/17 10:34:28;;;;;;;;;;;;;;;12.98;47.17;101785.69;4194227;28;20007;-66